Skip Navigation

Christman Field Latest Observations

Switch to english unitsOther observation timesWeekly graphs

Date Time
MST
Temp
°C
RH
%
DewPt
°C
Wind
m/s
Dir
°
Gust
m/s
Dir
°
Press
hPa
Solar
W/m^2
Prec
mm
2021-06-12 19:20 25.0 40.6 10.7 2.7 310 3.1 286 842.77 13.0 0.00
2021-06-12 19:15 25.4 36.8 9.6 2.3 296 3.1 296 842.73 16.9 0.00
2021-06-12 19:10 25.8 35.9 9.6 2.0 313 3.5 291 842.73 24.2 0.00
2021-06-12 19:05 25.8 33.6 8.6 3.0 306 3.9 290 842.67 31.5 0.00
2021-06-12 19:00 25.9 35.0 9.3 2.6 306 3.8 350 842.67 40.0 0.00
2021-06-12 18:55 26.5 36.2 10.3 2.6 330 3.6 304 842.62 50.0 0.00
2021-06-12 18:50 26.6 32.9 9.0 2.0 329 3.5 302 842.66 61.3 0.00
2021-06-12 18:45 26.7 35.0 10.0 3.4 275 4.7 300 842.62 73.5 0.00
2021-06-12 18:40 26.9 32.9 9.2 1.8 305 2.9 305 842.65 85.9 0.00
2021-06-12 18:35 26.3 38.0 10.9 2.7 344 4.0 309 842.60 98.2 0.00
2021-06-12 18:30 26.1 40.0 11.5 2.4 321 3.9 304 842.52 110.8 0.00
2021-06-12 18:25 26.8 40.4 12.3 2.7 328 3.6 321 842.60 122.8 0.00
2021-06-12 18:20 27.3 35.5 10.7 2.7 320 3.7 310 842.59 135.6 0.00
2021-06-12 18:15 27.4 35.7 10.9 3.1 325 4.2 316 842.52 149.1 0.00
2021-06-12 18:10 27.9 36.4 11.6 3.7 311 4.1 309 842.47 161.8 0.00
2021-06-12 18:05 28.2 37.4 12.3 3.6 300 4.0 294 842.46 174.6 0.00
2021-06-12 18:00 28.8 35.7 12.1 3.2 305 3.8 306 842.43 187.1 0.00
2021-06-12 17:55 29.2 36.2 12.7 2.3 312 2.9 309 842.43 202.8 0.00
2021-06-12 17:50 29.3 32.4 11.1 2.7 302 3.1 307 842.41 219.8 0.00
2021-06-12 17:45 29.7 31.2 10.9 2.4 308 2.9 304 842.42 233.7 0.00
2021-06-12 17:40 29.8 30.0 10.4 2.2 296 2.8 308 842.43 239.9 0.00
2021-06-12 17:35 29.7 25.9 8.1 1.7 313 2.2 307 842.44 151.8 0.00
2021-06-12 17:30 29.4 29.6 9.9 2.4 318 3.3 329 842.43 244.6 0.00
2021-06-12 17:25 29.4 26.8 8.4 3.1 313 3.5 324 842.44 294.3 0.00
2021-06-12 17:20 29.6 27.3 8.8 2.7 327 3.1 324 842.44 308.8 0.00
2021-06-12 17:15 29.8 25.6 8.0 2.8 318 3.3 313 842.43 323.1 0.00
2021-06-12 17:10 29.8 24.1 7.1 2.9 313 3.4 324 842.43 339.9 0.00
2021-06-12 17:05 30.0 23.2 6.8 2.8 330 3.2 328 842.44 357.0 0.00
2021-06-12 17:00 30.4 24.4 7.8 2.5 326 3.4 316 842.51 372.9 0.00
2021-06-12 16:55 30.6 20.3 5.3 2.1 314 2.9 307 842.53 388.8 0.00